Time;durP1;ratioP1;P1;durP2;ratioP2;P2;SDS_P1;SDS_P2;PMS_P1;PMS_P2;Temp;Humidity;BMP_temperature;BMP_pressure;BME280_temperature;BME280_humidity;BME280_pressure;Samples;Min_cycle;Max_cycle;Signal;HPM_P1;HPM_P2
2022/03/27 00:00:09;;;;;;;24.77;16.05;;;8.50;99.90;;;;;;12429900;28;20153;-81
2022/03/27 00:06:11;;;;;;;24.75;16.30;;;8.30;99.90;;;;;;12439427;28;20104;-80
2022/03/27 00:12:17;;;;;;;26.00;17.48;;;8.20;99.90;;;;;;12430242;28;20133;-81
2022/03/27 00:18:19;;;;;;;26.35;16.90;;;8.00;99.90;;;;;;12432753;28;20446;-80
2022/03/27 00:24:20;;;;;;;29.80;18.50;;;7.90;99.90;;;;;;12430195;28;20050;-79
2022/03/27 00:30:23;;;;;;;32.70;19.65;;;8.00;99.90;;;;;;12433278;28;21328;-79
2022/03/27 00:36:25;;;;;;;29.13;18.30;;;8.00;99.90;;;;;;12430052;28;20652;-80
2022/03/27 00:42:27;;;;;;;31.17;18.80;;;8.00;99.90;;;;;;12429550;28;21200;-79
2022/03/27 00:48:29;;;;;;;30.48;18.52;;;8.10;99.90;;;;;;12431569;28;20057;-79
2022/03/27 00:54:31;;;;;;;30.90;19.85;;;8.20;99.90;;;;;;12431709;28;21181;-81
2022/03/27 01:00:45;;;;;;;33.95;20.77;;;8.10;99.90;;;;;;12430080;28;20096;-81
2022/03/27 01:06:48;;;;;;;32.90;19.50;;;8.20;99.90;;;;;;12439586;28;20156;-81
2022/03/27 01:12:50;;;;;;;39.95;21.77;;;7.90;99.90;;;;;;12430637;28;20053;-81
2022/03/27 01:18:52;;;;;;;32.67;19.98;;;8.00;99.90;;;;;;12424105;28;20063;-79
2022/03/27 01:24:54;;;;;;;36.35;21.50;;;8.00;99.90;;;;;;12425434;28;20054;-79
2022/03/27 01:30:56;;;;;;;32.78;19.63;;;8.00;99.90;;;;;;12422495;28;20047;-80
2022/03/27 01:37:07;;;;;;;34.65;20.05;;;8.20;99.90;;;;;;12428258;28;20106;-79
2022/03/27 01:43:08;;;;;;;34.47;21.15;;;8.20;99.90;;;;;;12425861;28;20053;-79
2022/03/27 01:49:13;;;;;;;37.25;21.80;;;8.10;99.90;;;;;;12428848;28;20070;-81
2022/03/27 01:55:16;;;;;;;39.97;24.20;;;8.00;99.90;;;;;;12424697;28;20050;-79
2022/03/27 02:01:21;;;;;;;36.22;22.60;;;7.70;99.90;;;;;;12429954;28;20148;-80
2022/03/27 02:07:24;;;;;;;41.97;25.02;;;7.80;99.90;;;;;;12426073;28;20088;-79
2022/03/27 02:13:27;;;;;;;37.20;22.65;;;7.90;99.90;;;;;;12426646;28;20111;-80
2022/03/27 02:19:29;;;;;;;36.30;22.42;;;7.90;99.90;;;;;;12424757;28;20049;-79
2022/03/27 02:25:30;;;;;;;38.90;23.55;;;7.70;99.90;;;;;;12443252;28;20054;-79
2022/03/27 02:31:32;;;;;;;38.88;24.38;;;7.80;99.90;;;;;;12428342;28;20505;-79
2022/03/27 02:37:34;;;;;;;39.92;24.10;;;7.80;99.90;;;;;;12426476;28;20539;-81
2022/03/27 02:43:38;;;;;;;42.28;25.48;;;7.60;99.90;;;;;;12430705;28;20056;-80
2022/03/27 02:49:40;;;;;;;42.63;24.63;;;7.50;99.90;;;;;;12447180;28;20532;-81
2022/03/27 02:55:42;;;;;;;39.40;23.42;;;7.40;99.90;;;;;;12429050;28;20251;-80
2022/03/27 03:01:44;;;;;;;43.03;23.88;;;7.50;99.90;;;;;;12429503;28;20042;-81
2022/03/27 03:07:46;;;;;;;41.88;23.88;;;7.40;99.90;;;;;;12431274;28;20140;-79
2022/03/27 03:13:50;;;;;;;44.08;24.55;;;7.40;99.90;;;;;;12428655;28;20054;-80
2022/03/27 03:20:09;;;;;;;37.55;21.08;;;7.20;99.90;;;;;;12436332;28;20053;-81
2022/03/27 03:26:11;;;;;;;44.15;23.73;;;7.40;99.90;;;;;;12434752;28;20061;-81
2022/03/27 03:32:13;;;;;;;40.47;22.92;;;7.00;99.90;;;;;;12436440;28;20099;-81
2022/03/27 03:38:15;;;;;;;43.58;23.65;;;7.00;99.90;;;;;;12449115;28;20096;-79
2022/03/27 03:44:17;;;;;;;45.33;23.35;;;7.10;99.90;;;;;;12423891;28;21077;-82
2022/03/27 03:50:19;;;;;;;47.08;24.00;;;6.80;99.90;;;;;;12426889;28;20088;-80
2022/03/27 03:56:21;;;;;;;47.80;23.88;;;6.70;99.90;;;;;;12429230;28;20104;-81
2022/03/27 04:02:23;;;;;;;41.80;22.63;;;6.90;99.90;;;;;;12428377;28;20574;-79
2022/03/27 04:08:25;;;;;;;44.95;24.80;;;6.80;99.90;;;;;;12430237;28;20046;-81
2022/03/27 04:14:29;;;;;;;42.70;23.35;;;6.90;99.90;;;;;;12429841;28;20098;-81
2022/03/27 04:20:31;;;;;;;41.73;23.97;;;6.70;99.90;;;;;;12433981;28;20089;-81
2022/03/27 04:26:33;;;;;;;40.55;22.27;;;6.70;99.90;;;;;;12425106;28;20111;-81
2022/03/27 04:32:36;;;;;;;48.85;23.75;;;7.00;99.90;;;;;;12443312;28;20104;-79
2022/03/27 04:38:38;;;;;;;48.10;24.77;;;6.90;99.90;;;;;;12427408;28;20106;-80
2022/03/27 04:44:41;;;;;;;46.47;23.10;;;6.70;99.90;;;;;;12429060;28;20049;-79
2022/03/27 04:50:44;;;;;;;44.20;22.73;;;6.70;99.90;;;;;;12429690;28;20049;-81
2022/03/27 04:56:46;;;;;;;41.47;22.25;;;6.70;99.90;;;;;;12433029;28;20045;-81
2022/03/27 05:02:48;;;;;;;40.25;21.60;;;6.90;99.90;;;;;;12434694;28;20050;-81
2022/03/27 05:08:51;;;;;;;45.60;22.20;;;6.70;99.90;;;;;;12459527;28;20041;-81
2022/03/27 05:14:53;;;;;;;38.60;21.08;;;6.80;99.90;;;;;;12448137;28;20065;-81
2022/03/27 05:20:55;;;;;;;39.15;20.80;;;6.60;99.90;;;;;;12433768;28;21055;-81
2022/03/27 05:26:56;;;;;;;40.20;22.00;;;6.80;99.90;;;;;;12436587;28;20057;-81
2022/03/27 05:32:58;;;;;;;35.78;20.00;;;6.90;99.90;;;;;;12432851;28;20104;-80
2022/03/27 05:39:00;;;;;;;38.35;22.13;;;6.80;99.90;;;;;;12427454;28;20053;-80
2022/03/27 05:45:04;;;;;;;36.80;20.95;;;7.10;99.90;;;;;;12429161;28;20053;-79
2022/03/27 05:51:06;;;;;;;40.97;22.87;;;6.90;99.90;;;;;;12446061;28;20053;-81
2022/03/27 05:57:08;;;;;;;36.13;19.42;;;6.90;99.90;;;;;;12423454;28;20062;-80
2022/03/27 06:03:10;;;;;;;34.28;19.90;;;7.00;99.90;;;;;;12430124;28;20552;-82
2022/03/27 06:09:12;;;;;;;33.38;19.92;;;6.90;99.90;;;;;;12428582;28;20061;-79
2022/03/27 06:15:14;;;;;;;34.95;20.45;;;7.10;99.90;;;;;;12434269;28;20108;-79
2022/03/27 06:21:16;;;;;;;33.97;18.70;;;7.20;99.90;;;;;;12424742;28;20065;-80
2022/03/27 06:27:20;;;;;;;35.30;19.80;;;7.00;99.90;;;;;;12447812;28;20072;-80
2022/03/27 06:33:22;;;;;;;35.55;19.77;;;7.50;99.90;;;;;;12429935;28;20058;-82
2022/03/27 06:39:24;;;;;;;32.42;19.60;;;7.50;99.90;;;;;;12430389;28;20053;-81
2022/03/27 06:45:26;;;;;;;31.40;18.30;;;7.50;99.90;;;;;;12427940;28;20313;-81
2022/03/27 06:51:28;;;;;;;33.80;19.38;;;7.60;99.90;;;;;;12423878;28;20053;-79
2022/03/27 06:57:30;;;;;;;31.90;19.02;;;7.70;99.90;;;;;;12431548;28;20053;-81
2022/03/27 07:03:32;;;;;;;31.45;18.58;;;7.60;99.90;;;;;;12423079;28;20075;-82
2022/03/27 07:09:34;;;;;;;33.78;19.20;;;7.80;99.90;;;;;;12418670;28;20141;-81
2022/03/27 07:15:41;;;;;;;34.15;19.80;;;8.10;99.90;;;;;;12420408;28;20045;-81
2022/03/27 07:21:44;;;;;;;29.38;18.23;;;8.20;99.90;;;;;;12428547;28;20517;-82
2022/03/27 07:27:46;;;;;;;31.77;18.88;;;8.00;99.90;;;;;;12441100;28;20189;-81
2022/03/27 07:33:48;;;;;;;31.08;18.27;;;8.30;99.90;;;;;;12439421;28;20120;-81
2022/03/27 07:39:50;;;;;;;31.58;19.83;;;8.50;99.90;;;;;;12468552;28;20093;-81
2022/03/27 07:45:52;;;;;;;30.60;18.73;;;8.20;99.90;;;;;;12440350;28;20161;-82
2022/03/27 07:51:54;;;;;;;34.40;18.52;;;8.40;99.90;;;;;;12434609;28;20076;-80
2022/03/27 07:57:56;;;;;;;30.27;18.05;;;8.50;99.90;;;;;;12437333;28;20054;-80
2022/03/27 08:03:59;;;;;;;32.60;19.38;;;8.60;99.90;;;;;;12429365;28;20077;-82
2022/03/27 08:10:02;;;;;;;31.75;18.10;;;9.00;99.90;;;;;;12430420;28;20065;-79
2022/03/27 08:16:04;;;;;;;27.88;17.92;;;9.30;99.90;;;;;;12432043;28;20100;-80
2022/03/27 08:22:06;;;;;;;34.13;18.77;;;9.50;99.90;;;;;;12431534;28;20042;-80
2022/03/27 08:28:10;;;;;;;32.08;17.92;;;9.50;99.90;;;;;;12437169;28;20546;-82
2022/03/27 08:34:13;;;;;;;28.30;17.15;;;9.90;99.90;;;;;;12432058;28;20595;-79
2022/03/27 08:40:15;;;;;;;30.63;18.73;;;9.80;99.90;;;;;;12434882;28;20057;-80
2022/03/27 08:46:17;;;;;;;27.98;18.05;;;10.10;99.90;;;;;;12424950;28;20057;-82
2022/03/27 08:52:23;;;;;;;27.23;17.50;;;10.20;99.90;;;;;;12432635;28;20080;-82
2022/03/27 08:58:37;;;;;;;29.75;18.08;;;10.10;99.90;;;;;;12448034;28;20152;-82
2022/03/27 09:04:40;;;;;;;32.50;18.77;;;9.70;99.90;;;;;;12437517;28;20082;-82
2022/03/27 09:10:42;;;;;;;33.42;17.83;;;9.40;99.90;;;;;;12427586;28;20143;-82
2022/03/27 09:17:05;;;;;;;29.40;17.50;;;9.40;99.90;;;;;;12439132;28;20884;-81
2022/03/27 09:23:28;;;;;;;30.05;17.90;;;9.50;99.90;;;;;;12426529;28;20054;-82
2022/03/27 09:29:29;;;;;;;30.70;19.00;;;9.90;99.90;;;;;;12428504;28;20091;-82
2022/03/27 09:35:33;;;;;;;27.60;16.88;;;10.30;99.90;;;;;;12434082;28;20075;-80
2022/03/27 09:41:36;;;;;;;31.77;17.73;;;10.20;99.90;;;;;;12426941;28;20630;-80
2022/03/27 09:47:39;;;;;;;32.00;18.27;;;10.40;99.90;;;;;;12430474;28;20064;-82
2022/03/27 09:53:41;;;;;;;31.92;19.33;;;10.60;99.90;;;;;;12437993;28;20057;-81
2022/03/27 09:59:45;;;;;;;27.45;17.58;;;10.70;99.90;;;;;;12446086;28;20088;-82
2022/03/27 10:05:47;;;;;;;30.52;18.15;;;10.50;99.90;;;;;;12430473;28;20136;-82
2022/03/27 10:11:51;;;;;;;30.73;17.38;;;11.00;99.90;;;;;;12422165;28;20531;-82
2022/03/27 10:18:17;;;;;;;30.43;18.10;;;11.10;99.90;;;;;;12428121;28;20054;-80
2022/03/27 10:24:21;;;;;;;31.50;17.67;;;11.10;99.90;;;;;;12422603;28;20296;-80
2022/03/27 10:30:24;;;;;;;28.33;16.77;;;11.30;99.90;;;;;;12436560;28;20093;-82
2022/03/27 10:36:44;;;;;;;29.10;17.08;;;11.80;99.90;;;;;;12425177;28;20060;-81
2022/03/27 10:43:05;;;;;;;27.33;17.73;;;11.90;99.90;;;;;;12420331;28;20103;-80
2022/03/27 10:49:15;;;;;;;25.80;16.95;;;12.20;99.90;;;;;;12426530;28;20824;-83
2022/03/27 10:55:17;;;;;;;27.48;17.45;;;12.30;99.90;;;;;;12432775;28;20054;-81
2022/03/27 11:01:22;;;;;;;26.83;17.20;;;12.50;99.90;;;;;;12444173;28;20578;-83
2022/03/27 11:07:24;;;;;;;28.88;17.30;;;12.00;99.90;;;;;;12444372;28;20054;-80
2022/03/27 11:13:26;;;;;;;25.42;16.52;;;12.60;99.90;;;;;;12450440;28;20200;-83
2022/03/27 11:19:48;;;;;;;25.83;17.25;;;13.20;99.90;;;;;;12442677;28;20054;-80
2022/03/27 11:25:50;;;;;;;28.13;17.25;;;13.70;99.90;;;;;;12433659;28;20531;-83
2022/03/27 11:32:07;;;;;;;26.38;17.27;;;13.60;99.90;;;;;;12435811;28;20050;-83
2022/03/27 11:38:24;;;;;;;24.02;15.93;;;13.60;99.90;;;;;;12434373;28;20055;-83
2022/03/27 11:50:55;;;;;;;28.42;17.00;;;14.40;99.90;;;;;;12428304;28;20108;-84
2022/03/27 11:56:59;;;;;;;26.95;16.58;;;14.60;99.90;;;;;;12436643;28;20099;-84
2022/03/27 12:03:03;;;;;;;25.98;16.77;;;14.50;99.90;;;;;;12426671;28;20049;-81
2022/03/27 12:09:05;;;;;;;24.10;15.77;;;14.80;99.90;;;;;;12413235;28;20474;-81
2022/03/27 12:15:09;;;;;;;26.60;16.98;;;14.90;99.90;;;;;;12433083;28;20049;-82
2022/03/27 12:21:13;;;;;;;24.42;16.77;;;15.60;99.90;;;;;;12433137;28;20095;-83
2022/03/27 12:33:45;;;;;;;27.75;16.92;;;15.60;99.90;;;;;;12435575;28;19929;-84
2022/03/27 12:39:46;;;;;;;26.02;17.55;;;15.70;99.90;;;;;;12427907;28;20494;-83
2022/03/27 12:45:49;;;;;;;24.95;17.05;;;15.30;99.90;;;;;;12429212;28;20552;-83
2022/03/27 12:51:57;;;;;;;24.77;17.58;;;15.60;99.90;;;;;;12432875;28;20053;-83
2022/03/27 12:58:00;;;;;;;24.92;16.30;;;15.80;99.90;;;;;;12427804;28;20050;-83
2022/03/27 13:04:08;;;;;;;29.90;17.70;;;16.30;99.90;;;;;;12423902;28;20605;-83
2022/03/27 13:10:12;;;;;;;27.73;17.08;;;15.80;99.90;;;;;;12418040;28;20054;-83
2022/03/27 13:16:19;;;;;;;26.08;16.17;;;15.70;99.90;;;;;;12417415;28;20118;-83
2022/03/27 13:22:21;;;;;;;22.63;15.45;;;15.70;99.90;;;;;;12411071;28;20156;-83
2022/03/27 13:28:23;;;;;;;21.95;16.27;;;15.80;99.90;;;;;;12420628;28;20076;-80
2022/03/27 13:34:26;;;;;;;23.77;16.30;;;16.10;99.90;;;;;;12428565;28;20123;-83
2022/03/27 13:46:50;;;;;;;24.25;17.05;;;15.80;99.90;;;;;;12453128;28;20180;-80
2022/03/27 13:52:52;;;;;;;26.02;16.55;;;15.40;99.90;;;;;;12446949;28;20053;-81
2022/03/27 13:58:53;;;;;;;25.35;16.05;;;15.40;99.90;;;;;;12423020;28;20481;-84
2022/03/27 14:04:57;;;;;;;25.05;15.98;;;15.10;99.90;;;;;;12420602;28;20045;-81
2022/03/27 14:10:59;;;;;;;26.85;15.80;;;15.10;99.90;;;;;;12423815;28;20058;-80
2022/03/27 14:17:02;;;;;;;28.27;15.40;;;15.20;99.90;;;;;;12425451;28;20045;-83
2022/03/27 14:23:04;;;;;;;25.37;16.07;;;15.10;99.90;;;;;;12425745;28;20073;-83
2022/03/27 14:29:06;;;;;;;25.13;16.80;;;15.20;99.90;;;;;;12429686;28;20050;-84
2022/03/27 14:35:08;;;;;;;24.90;16.02;;;15.20;99.90;;;;;;12434551;28;20053;-81
2022/03/27 14:41:10;;;;;;;24.35;16.60;;;15.20;99.90;;;;;;12438427;28;20049;-81
2022/03/27 14:47:12;;;;;;;22.55;15.13;;;15.30;99.90;;;;;;12440251;28;20076;-81
2022/03/27 14:53:16;;;;;;;25.20;16.33;;;15.20;99.90;;;;;;12463751;28;20220;-81
2022/03/27 14:59:18;;;;;;;22.90;15.25;;;15.10;99.90;;;;;;12436122;28;20045;-82
2022/03/27 15:05:20;;;;;;;22.27;15.30;;;15.10;99.90;;;;;;12435827;28;20053;-84
2022/03/27 15:11:23;;;;;;;23.33;15.20;;;15.40;99.90;;;;;;12434884;28;20050;-81
2022/03/27 15:17:24;;;;;;;23.73;14.75;;;15.20;99.90;;;;;;12434113;28;20076;-83
2022/03/27 15:23:26;;;;;;;20.00;13.55;;;15.30;99.90;;;;;;12438570;28;20129;-84
2022/03/27 15:29:29;;;;;;;24.67;15.88;;;15.70;99.90;;;;;;12434979;28;20061;-80
2022/03/27 15:35:31;;;;;;;23.90;15.82;;;15.40;99.90;;;;;;12435763;28;20489;-81
2022/03/27 15:41:33;;;;;;;24.17;15.57;;;15.20;99.90;;;;;;12433137;28;20054;-83
2022/03/27 15:47:36;;;;;;;26.80;16.17;;;15.30;99.90;;;;;;12448091;28;20053;-85
2022/03/27 15:53:37;;;;;;;22.05;14.48;;;15.00;99.90;;;;;;12463244;28;20124;-81
2022/03/27 15:59:39;;;;;;;26.42;16.55;;;15.20;99.90;;;;;;12433835;28;20478;-81
2022/03/27 16:05:41;;;;;;;23.55;15.27;;;15.00;99.90;;;;;;12434228;28;20080;-84
2022/03/27 16:11:43;;;;;;;24.38;16.23;;;15.00;99.90;;;;;;12430643;28;20506;-84
2022/03/27 16:17:45;;;;;;;27.42;16.48;;;15.00;99.90;;;;;;12433964;28;20120;-81
2022/03/27 16:23:47;;;;;;;26.58;15.93;;;14.80;99.90;;;;;;12429811;28;20495;-83
2022/03/27 16:29:51;;;;;;;23.95;14.75;;;14.70;99.90;;;;;;12444385;28;20049;-81
2022/03/27 16:35:53;;;;;;;24.98;15.57;;;14.80;99.90;;;;;;12429073;28;20100;-81
2022/03/27 16:41:56;;;;;;;21.77;14.35;;;14.70;99.90;;;;;;12422715;28;20060;-84
2022/03/27 16:47:58;;;;;;;24.30;14.95;;;14.80;99.90;;;;;;12427553;28;20065;-81
2022/03/27 16:54:00;;;;;;;19.80;13.13;;;14.30;99.90;;;;;;12429974;28;20070;-81
2022/03/27 17:00:03;;;;;;;21.50;14.25;;;13.80;99.90;;;;;;12453327;28;20366;-84
2022/03/27 17:06:05;;;;;;;23.42;13.52;;;13.70;99.90;;;;;;12441141;28;20160;-84
2022/03/27 17:12:08;;;;;;;22.25;13.25;;;13.60;99.90;;;;;;12440121;28;20054;-83
2022/03/27 17:18:10;;;;;;;17.50;11.80;;;13.20;99.90;;;;;;12435172;28;20054;-80
2022/03/27 17:24:12;;;;;;;20.17;12.95;;;13.00;99.90;;;;;;12429888;28;20171;-80
2022/03/27 17:30:14;;;;;;;20.75;12.15;;;12.80;99.90;;;;;;12428954;28;20053;-82
2022/03/27 17:36:16;;;;;;;18.83;10.70;;;12.20;99.90;;;;;;12427542;28;20054;-81
2022/03/27 17:42:18;;;;;;;21.95;11.95;;;12.10;99.90;;;;;;12421014;28;20042;-81
2022/03/27 17:48:21;;;;;;;18.15;11.55;;;11.70;99.90;;;;;;12425208;28;20084;-80
2022/03/27 17:54:25;;;;;;;22.45;12.73;;;11.30;99.90;;;;;;12428049;28;20137;-80
2022/03/27 18:00:30;;;;;;;20.83;12.35;;;11.10;99.90;;;;;;12434210;28;20046;-81
2022/03/27 18:06:32;;;;;;;20.15;12.02;;;10.90;99.90;;;;;;12427155;28;20099;-81
2022/03/27 18:12:34;;;;;;;18.10;11.00;;;10.70;99.90;;;;;;12430587;28;20104;-83
2022/03/27 18:18:36;;;;;;;19.50;10.80;;;10.60;99.90;;;;;;12425000;28;20045;-81
2022/03/27 18:24:38;;;;;;;17.92;11.60;;;10.50;99.90;;;;;;12458445;28;20270;-81
2022/03/27 18:30:40;;;;;;;19.60;11.73;;;10.30;99.90;;;;;;12434028;28;20095;-80
2022/03/27 18:36:42;;;;;;;19.88;11.75;;;10.20;99.90;;;;;;12429851;28;20049;-79
2022/03/27 18:42:45;;;;;;;22.95;11.55;;;10.10;99.90;;;;;;12418300;28;20050;-82
2022/03/27 18:48:47;;;;;;;21.87;11.80;;;9.80;99.90;;;;;;12415425;28;20046;-82
2022/03/27 18:54:49;;;;;;;19.85;11.23;;;9.60;99.90;;;;;;12425175;28;20099;-80
2022/03/27 19:00:51;;;;;;;19.85;11.18;;;9.50;99.90;;;;;;12415767;28;20042;-82
2022/03/27 19:06:53;;;;;;;20.50;11.57;;;9.30;99.90;;;;;;12429168;28;20121;-80
2022/03/27 19:12:55;;;;;;;18.15;11.23;;;9.40;99.90;;;;;;12425839;28;20046;-80
2022/03/27 19:18:57;;;;;;;20.15;12.43;;;9.30;99.90;;;;;;12439399;28;20095;-82
2022/03/27 19:24:59;;;;;;;20.38;12.05;;;9.20;99.90;;;;;;12442204;28;20579;-81
2022/03/27 19:31:03;;;;;;;19.75;12.80;;;9.10;99.90;;;;;;12447188;28;20079;-80
2022/03/27 19:37:05;;;;;;;20.23;12.10;;;8.90;99.90;;;;;;12438241;28;20224;-79
2022/03/27 19:43:09;;;;;;;20.23;12.07;;;8.60;99.90;;;;;;12462398;28;20665;-82
2022/03/27 19:49:11;;;;;;;20.92;12.30;;;8.70;99.90;;;;;;12436724;28;20049;-81
2022/03/27 19:55:14;;;;;;;20.65;12.32;;;8.60;99.90;;;;;;12434709;28;20116;-79
2022/03/27 20:01:16;;;;;;;20.67;12.52;;;8.60;99.90;;;;;;12431658;28;20448;-80
2022/03/27 20:07:19;;;;;;;20.55;12.15;;;8.70;99.90;;;;;;12427436;28;20502;-81
2022/03/27 20:13:22;;;;;;;19.38;11.48;;;8.60;99.90;;;;;;12435034;28;20168;-80
2022/03/27 20:19:24;;;;;;;24.35;12.93;;;8.50;99.90;;;;;;12435222;28;20053;-81
2022/03/27 20:25:27;;;;;;;25.23;12.95;;;8.30;99.90;;;;;;12432326;28;20053;-81
2022/03/27 20:31:31;;;;;;;20.17;11.52;;;8.30;99.90;;;;;;12428711;28;20133;-82
2022/03/27 20:37:33;;;;;;;24.57;12.60;;;8.20;99.90;;;;;;12433756;28;20472;-81
2022/03/27 20:43:35;;;;;;;20.58;11.52;;;8.10;99.90;;;;;;12442310;28;20502;-81
2022/03/27 20:49:40;;;;;;;21.00;12.05;;;8.10;99.90;;;;;;12433158;28;20141;-79
2022/03/27 20:55:42;;;;;;;24.67;11.75;;;8.10;99.90;;;;;;12450053;28;20110;-82
2022/03/27 21:01:45;;;;;;;22.13;12.32;;;8.30;99.90;;;;;;12430731;28;20042;-81
2022/03/27 21:07:52;;;;;;;28.75;14.63;;;8.20;99.90;;;;;;12429189;28;20153;-80
2022/03/27 21:13:54;;;;;;;31.10;15.52;;;7.80;99.90;;;;;;12429249;28;20444;-80
2022/03/27 21:19:56;;;;;;;33.80;16.13;;;8.00;99.90;;;;;;12429537;28;20472;-80
2022/03/27 21:25:58;;;;;;;39.63;17.50;;;7.90;99.90;;;;;;12426343;28;20103;-81
2022/03/27 21:32:00;;;;;;;30.23;15.63;;;8.00;99.90;;;;;;12429329;28;20082;-79
2022/03/27 21:38:03;;;;;;;31.55;15.60;;;7.90;99.90;;;;;;12430945;28;20046;-81
2022/03/27 21:44:05;;;;;;;34.40;16.23;;;7.90;99.90;;;;;;12431452;28;20454;-79
2022/03/27 21:50:09;;;;;;;30.10;15.90;;;7.80;99.90;;;;;;12437114;28;20413;-81
2022/03/27 21:56:11;;;;;;;30.83;16.08;;;7.70;99.90;;;;;;12442627;28;20120;-81
2022/03/27 22:02:13;;;;;;;36.60;16.10;;;7.50;99.90;;;;;;12457484;28;20092;-81
2022/03/27 22:08:15;;;;;;;31.02;15.93;;;7.40;99.90;;;;;;12430752;28;20123;-79
2022/03/27 22:14:17;;;;;;;36.67;17.05;;;7.50;99.90;;;;;;12427097;28;20548;-81
2022/03/27 22:20:19;;;;;;;32.33;15.85;;;7.40;99.90;;;;;;12428432;28;20053;-80
2022/03/27 22:26:22;;;;;;;30.70;15.48;;;7.40;99.90;;;;;;12430634;28;20444;-79
2022/03/27 22:32:25;;;;;;;32.40;15.50;;;7.20;99.90;;;;;;12427781;28;20081;-81
2022/03/27 22:38:27;;;;;;;33.50;14.52;;;7.20;99.90;;;;;;12429162;28;20046;-81
2022/03/27 22:44:29;;;;;;;33.05;16.05;;;7.20;99.90;;;;;;12418918;28;20532;-79
2022/03/27 22:50:31;;;;;;;29.23;15.18;;;7.10;99.90;;;;;;12427933;28;20053;-80
2022/03/27 22:56:36;;;;;;;30.50;14.68;;;7.00;99.90;;;;;;12436520;28;20932;-79
2022/03/27 23:02:39;;;;;;;29.27;14.15;;;7.00;99.90;;;;;;12435952;28;20045;-81
2022/03/27 23:08:41;;;;;;;25.33;13.48;;;7.10;99.90;;;;;;12445407;28;20067;-81
2022/03/27 23:14:43;;;;;;;27.48;13.65;;;7.00;99.90;;;;;;12444781;28;20075;-79
2022/03/27 23:20:44;;;;;;;32.17;15.05;;;7.10;99.90;;;;;;12447572;28;20153;-79
2022/03/27 23:26:47;;;;;;;29.02;14.38;;;7.00;99.90;;;;;;12433105;28;20053;-80
2022/03/27 23:32:49;;;;;;;30.88;15.25;;;6.90;99.90;;;;;;12428701;28;20433;-79
2022/03/27 23:38:51;;;;;;;30.80;14.35;;;6.90;99.90;;;;;;12432537;28;20049;-79
2022/03/27 23:44:53;;;;;;;28.20;13.77;;;6.90;99.90;;;;;;12431729;28;20049;-80
2022/03/27 23:50:55;;;;;;;26.95;13.02;;;6.80;99.90;;;;;;12438818;28;20127;-81
2022/03/27 23:56:57;;;;;;;34.63;15.02;;;6.70;99.90;;;;;;12428487;28;20060;-80
